createdAt,value
2023-05-12T00:00:42.213Z,8.89
2023-05-12T00:01:42.183Z,8.88
2023-05-12T00:02:42.475Z,8.85
2023-05-12T00:03:42.249Z,8.84
2023-05-12T00:04:42.283Z,8.84
2023-05-12T00:05:42.130Z,8.84
2023-05-12T00:06:42.117Z,8.84
2023-05-12T00:07:42.105Z,8.87
2023-05-12T00:08:42.081Z,8.85
2023-05-12T00:09:42.107Z,8.85
2023-05-12T00:10:42.070Z,8.88
2023-05-12T00:11:42.074Z,8.88
2023-05-12T00:12:42.021Z,8.88
2023-05-12T00:13:42.035Z,8.85
2023-05-12T00:14:42.020Z,8.87
2023-05-12T00:15:41.982Z,8.87
2023-05-12T00:16:42.007Z,8.88
2023-05-12T00:17:42.033Z,8.89
2023-05-12T00:18:41.965Z,8.91
2023-05-12T00:19:41.958Z,8.92
2023-05-12T00:20:41.923Z,8.92
2023-05-12T00:21:42.192Z,8.95
2023-05-12T00:22:41.934Z,8.94
2023-05-12T00:23:41.888Z,8.94
2023-05-12T00:24:41.885Z,8.94
2023-05-12T00:25:41.860Z,8.95
2023-05-12T00:26:41.873Z,8.97
2023-05-12T00:27:41.849Z,8.95
2023-05-12T00:28:41.811Z,8.95
2023-05-12T00:29:41.805Z,8.95
2023-05-12T00:30:41.792Z,8.94
2023-05-12T00:31:41.856Z,8.92
2023-05-12T00:32:41.833Z,8.91
2023-05-12T00:33:41.736Z,8.92
2023-05-12T00:34:41.770Z,8.94
2023-05-12T00:35:41.735Z,8.91
2023-05-12T00:36:41.754Z,8.92
2023-05-12T00:37:41.802Z,8.94
2023-05-12T00:38:41.690Z,8.95
2023-05-12T00:39:41.702Z,8.97
2023-05-12T00:40:41.669Z,8.95
2023-05-12T00:41:41.675Z,8.94
2023-05-12T00:42:41.631Z,8.95
2023-05-12T00:43:41.611Z,8.95
2023-05-12T00:44:41.623Z,8.97
2023-05-12T00:45:41.671Z,8.95
2023-05-12T00:46:41.572Z,8.97
2023-05-12T00:47:41.607Z,8.94
2023-05-12T00:48:41.580Z,8.92
2023-05-12T00:49:41.541Z,8.88
2023-05-12T00:50:41.528Z,8.87
2023-05-12T00:51:41.528Z,8.85
2023-05-12T00:52:41.508Z,8.84
2023-05-12T00:53:49.026Z,8.84
2023-05-12T00:54:41.477Z,8.82
2023-05-12T00:55:41.496Z,8.81
2023-05-12T00:56:41.482Z,8.82
2023-05-12T00:57:41.484Z,8.82
2023-05-12T00:58:41.413Z,8.82
2023-05-12T00:59:41.404Z,8.82
2023-05-12T01:00:41.431Z,8.82
2023-05-12T01:01:41.494Z,8.82
2023-05-12T01:02:41.479Z,8.84
2023-05-12T01:03:41.389Z,8.84
2023-05-12T01:04:41.389Z,8.81
2023-05-12T01:05:41.329Z,8.78
2023-05-12T01:06:41.315Z,8.76
2023-05-12T01:07:41.315Z,8.78
2023-05-12T01:08:41.286Z,8.74
2023-05-12T01:09:41.299Z,8.71
2023-05-12T01:10:41.277Z,8.69
2023-05-12T01:11:41.290Z,8.66
2023-05-12T01:12:41.230Z,8.63
2023-05-12T01:13:41.326Z,8.60
2023-05-12T01:14:41.212Z,8.60
2023-05-12T01:15:41.196Z,8.63
2023-05-12T01:16:41.407Z,8.60
2023-05-12T01:17:41.224Z,8.60
2023-05-12T01:18:41.168Z,8.61
2023-05-12T01:19:41.257Z,8.63
2023-05-12T01:20:41.139Z,8.63
2023-05-12T01:21:41.154Z,8.66
2023-05-12T01:22:41.114Z,8.60
2023-05-12T01:23:41.089Z,8.58
2023-05-12T01:24:41.120Z,8.61
2023-05-12T01:25:41.072Z,8.58
2023-05-12T01:26:41.181Z,8.55
2023-05-12T01:27:41.223Z,8.52
2023-05-12T01:28:41.058Z,8.52
2023-05-12T01:29:41.005Z,8.53
2023-05-12T01:30:40.995Z,8.56
2023-05-12T01:31:41.129Z,8.58
2023-05-12T01:32:41.007Z,8.61
2023-05-12T01:33:40.942Z,8.63
2023-05-12T01:34:40.932Z,8.63
2023-05-12T01:35:40.940Z,8.64
2023-05-12T01:36:40.928Z,8.60
2023-05-12T01:37:41.025Z,8.60
2023-05-12T01:38:40.889Z,8.63
2023-05-12T01:39:40.884Z,8.63
2023-05-12T01:40:40.862Z,8.66
2023-05-12T01:41:40.844Z,8.64
2023-05-12T01:42:40.881Z,8.63
2023-05-12T01:43:40.816Z,8.63
2023-05-12T01:44:40.805Z,8.61
2023-05-12T01:45:40.791Z,8.63
2023-05-12T01:46:40.868Z,8.64
2023-05-12T01:47:40.866Z,8.66
2023-05-12T01:48:40.753Z,8.67
2023-05-12T01:49:40.730Z,8.69
2023-05-12T01:50:40.752Z,8.69
2023-05-12T01:51:40.727Z,8.69
2023-05-12T01:52:40.742Z,8.69
2023-05-12T01:53:40.684Z,8.69
2023-05-12T01:54:40.689Z,8.66
2023-05-12T01:55:40.649Z,8.64
2023-05-12T01:56:40.645Z,8.61
2023-05-12T01:57:40.662Z,8.61
2023-05-12T01:58:40.640Z,8.58
2023-05-12T01:59:40.597Z,8.58
2023-05-12T02:00:40.581Z,8.56
2023-05-12T02:01:40.667Z,8.55
2023-05-12T02:02:42.933Z,8.56
2023-05-12T02:03:40.738Z,8.56
2023-05-12T02:04:40.534Z,8.55
2023-05-12T02:05:40.622Z,8.56
2023-05-12T02:06:40.518Z,8.58
2023-05-12T02:07:40.515Z,8.58
2023-05-12T02:08:40.506Z,8.56
2023-05-12T02:09:40.454Z,8.58
2023-05-12T02:10:40.450Z,8.55
2023-05-12T02:11:40.522Z,8.55
2023-05-12T02:12:40.461Z,8.55
2023-05-12T02:13:40.426Z,8.53
2023-05-12T02:14:40.426Z,8.51
2023-05-12T02:15:40.392Z,8.51
2023-05-12T02:16:40.396Z,8.46
2023-05-12T02:17:40.383Z,8.45
2023-05-12T02:18:40.351Z,8.45
2023-05-12T02:19:40.332Z,8.44
2023-05-12T02:20:40.349Z,8.42
2023-05-12T02:21:40.319Z,8.42
2023-05-12T02:22:40.289Z,8.42
2023-05-12T02:23:40.310Z,8.38
2023-05-12T02:24:40.277Z,8.41
2023-05-12T02:25:40.237Z,8.37
2023-05-12T02:26:40.239Z,8.36
2023-05-12T02:27:40.248Z,8.34
2023-05-12T02:28:40.224Z,8.33
2023-05-12T02:29:40.210Z,8.33
2023-05-12T02:30:40.267Z,8.31
2023-05-12T02:31:40.193Z,8.31
2023-05-12T02:32:40.239Z,8.30
2023-05-12T02:33:40.162Z,8.28
2023-05-12T02:34:40.139Z,8.27
2023-05-12T02:35:40.122Z,8.24
2023-05-12T02:36:40.114Z,8.23
2023-05-12T02:37:54.386Z,8.20
2023-05-12T02:38:40.091Z,8.20
2023-05-12T02:39:40.068Z,8.16
2023-05-12T02:40:40.087Z,8.15
2023-05-12T02:41:40.086Z,8.13
2023-05-12T02:42:40.120Z,8.12
2023-05-12T02:43:40.023Z,8.05
2023-05-12T02:44:40.153Z,8.03
2023-05-12T02:45:40.088Z,7.97
2023-05-12T02:46:40.004Z,7.94
2023-05-12T02:47:40.102Z,7.93
2023-05-12T02:48:39.952Z,7.93
2023-05-12T02:49:39.932Z,7.88
2023-05-12T02:50:39.954Z,7.85
2023-05-12T02:51:39.919Z,7.80
2023-05-12T02:52:39.892Z,7.79
2023-05-12T02:53:39.891Z,7.76
2023-05-12T02:54:39.882Z,7.75
2023-05-12T02:55:39.939Z,7.72
2023-05-12T02:56:39.858Z,7.70
2023-05-12T02:57:39.832Z,7.69
2023-05-12T02:58:39.855Z,7.67
2023-05-12T02:59:39.793Z,7.69
2023-05-12T03:00:39.795Z,7.69
2023-05-12T03:01:39.812Z,7.69
2023-05-12T03:02:39.879Z,7.69
2023-05-12T03:03:39.877Z,7.70
2023-05-12T03:04:39.737Z,7.72
2023-05-12T03:05:39.772Z,7.73
2023-05-12T03:06:39.724Z,7.72
2023-05-12T03:07:39.713Z,7.67
2023-05-12T03:08:39.809Z,7.61
2023-05-12T03:09:39.697Z,7.63
2023-05-12T03:10:39.687Z,7.61
2023-05-12T03:11:39.660Z,7.60
2023-05-12T03:12:39.655Z,7.58
2023-05-12T03:13:39.620Z,7.60
2023-05-12T03:14:39.917Z,7.58
2023-05-12T03:15:39.614Z,7.60
2023-05-12T03:16:39.650Z,7.60
2023-05-12T03:17:39.597Z,7.63
2023-05-12T03:18:39.619Z,7.66
2023-05-12T03:19:39.541Z,7.66
2023-05-12T03:20:39.558Z,7.67
2023-05-12T03:21:39.514Z,7.69
2023-05-12T03:22:39.510Z,7.72
2023-05-12T03:23:39.526Z,7.70
2023-05-12T03:24:39.512Z,7.72
2023-05-12T03:25:39.549Z,7.73
2023-05-12T03:26:39.450Z,7.70
2023-05-12T03:27:39.451Z,7.72
2023-05-12T03:28:39.435Z,7.72
2023-05-12T03:31:07.325Z,7.67
2023-05-12T03:31:12.719Z,7.69
2023-05-12T03:32:12.666Z,7.69
2023-05-12T03:33:12.643Z,7.70
2023-05-12T03:34:12.627Z,7.72
2023-05-12T03:35:12.636Z,7.73
2023-05-12T03:36:12.604Z,7.73
2023-05-12T03:37:12.724Z,7.75
2023-05-12T03:38:12.591Z,7.75
2023-05-12T03:39:12.572Z,7.73
2023-05-12T03:40:12.580Z,7.75
2023-05-12T03:41:12.541Z,7.75
2023-05-12T03:42:12.517Z,7.75
2023-05-12T03:43:12.529Z,7.76
2023-05-12T03:44:12.490Z,7.75
2023-05-12T03:45:12.517Z,7.75
2023-05-12T03:46:12.556Z,7.73
2023-05-12T03:47:12.637Z,7.72
2023-05-12T03:48:12.508Z,7.73
2023-05-12T03:49:12.439Z,7.75
2023-05-12T03:50:12.409Z,7.75
2023-05-12T03:51:12.398Z,7.77
2023-05-12T03:52:12.412Z,7.77
2023-05-12T03:53:12.379Z,7.77
2023-05-12T03:54:12.361Z,7.79
2023-05-12T03:55:12.378Z,7.79
2023-05-12T03:56:12.324Z,7.77
2023-05-12T03:57:12.360Z,7.77
2023-05-12T03:58:12.313Z,7.79
2023-05-12T03:59:12.307Z,7.77
2023-05-12T04:00:12.301Z,7.79
2023-05-12T04:01:12.288Z,7.76
2023-05-12T04:02:12.297Z,7.76
2023-05-12T04:03:12.330Z,7.75
2023-05-12T04:04:12.255Z,7.75
2023-05-12T04:05:12.211Z,7.76
2023-05-12T04:06:12.217Z,7.77
2023-05-12T04:07:12.221Z,7.79
2023-05-12T04:08:12.184Z,7.79
2023-05-12T04:09:12.164Z,7.77
2023-05-12T04:10:12.198Z,7.79
2023-05-12T04:11:12.156Z,7.77
2023-05-12T04:12:12.131Z,7.79
2023-05-12T04:13:12.121Z,7.79
2023-05-12T04:14:12.126Z,7.80
2023-05-12T04:15:12.232Z,7.85
2023-05-12T04:16:12.216Z,7.83
2023-05-12T04:17:12.090Z,7.87
2023-05-12T04:18:12.055Z,7.88
2023-05-12T04:19:12.108Z,7.88
2023-05-12T04:20:12.025Z,7.90
2023-05-12T04:21:12.046Z,7.91
2023-05-12T04:22:11.988Z,7.93
2023-05-12T04:23:11.989Z,7.93
2023-05-12T04:24:11.978Z,7.93
2023-05-12T04:25:12.002Z,7.93
2023-05-12T04:26:11.949Z,7.93
2023-05-12T04:27:11.934Z,7.90
2023-05-12T04:28:12.343Z,7.91
2023-05-12T04:29:11.900Z,7.91
2023-05-12T04:30:11.890Z,7.94
2023-05-12T04:31:11.872Z,7.91
2023-05-12T04:32:11.950Z,7.88
2023-05-12T04:33:11.921Z,7.88
2023-05-12T04:34:11.881Z,7.85
2023-05-12T04:35:11.818Z,7.85
2023-05-12T04:36:11.808Z,7.87
2023-05-12T04:37:11.804Z,7.88
2023-05-12T04:38:11.789Z,7.90
2023-05-12T04:39:11.785Z,7.90
2023-05-12T04:40:11.812Z,7.91
2023-05-12T04:41:11.752Z,7.95
2023-05-12T04:42:11.735Z,7.95
2023-05-12T04:44:00.008Z,7.98
2023-05-12T04:44:11.740Z,8.00
2023-05-12T04:45:11.720Z,8.01
2023-05-12T04:46:11.707Z,8.03
2023-05-12T04:47:11.695Z,8.05
2023-05-12T04:48:11.667Z,8.06
2023-05-12T04:49:11.657Z,8.05
2023-05-12T04:50:11.703Z,8.08
2023-05-12T04:51:11.654Z,8.09
2023-05-12T04:52:11.597Z,8.09
2023-05-12T04:53:11.606Z,8.09
2023-05-12T04:54:11.571Z,8.12
2023-05-12T04:55:11.588Z,8.13
2023-05-12T04:56:11.574Z,8.18
2023-05-12T04:57:11.537Z,8.19
2023-05-12T04:58:11.509Z,8.19
2023-05-12T04:59:11.510Z,8.24
2023-05-12T05:00:11.526Z,8.23
2023-05-12T05:01:11.562Z,8.26
2023-05-12T05:02:11.533Z,8.27
2023-05-12T05:03:11.697Z,8.27
2023-05-12T05:04:11.437Z,8.27
2023-05-12T05:05:11.432Z,8.30
2023-05-12T05:06:11.402Z,8.31
2023-05-12T05:07:11.417Z,8.34
2023-05-12T05:08:11.388Z,8.36
2023-05-12T05:09:11.379Z,8.38
2023-05-12T05:10:11.380Z,8.41
2023-05-12T05:11:11.374Z,8.42
2023-05-12T05:12:11.336Z,8.45
2023-05-12T05:13:11.335Z,8.49
2023-05-12T05:14:11.301Z,8.52
2023-05-12T05:15:11.293Z,8.53
2023-05-12T05:16:11.331Z,8.58
2023-05-12T05:17:11.262Z,8.55
2023-05-12T05:18:11.293Z,8.58
2023-05-12T05:19:20.049Z,8.56
2023-05-12T05:20:12.233Z,8.58
2023-05-12T05:21:11.428Z,8.61
2023-05-12T05:22:11.197Z,8.63
2023-05-12T05:23:11.187Z,8.66
2023-05-12T05:24:11.206Z,8.69
2023-05-12T05:25:11.221Z,8.70
2023-05-12T05:26:11.141Z,8.71
2023-05-12T05:27:11.129Z,8.73
2023-05-12T05:28:11.121Z,8.76
2023-05-12T05:29:11.126Z,8.79
2023-05-12T05:30:11.088Z,8.81
2023-05-12T05:31:11.107Z,8.82
2023-05-12T05:32:11.086Z,8.82
2023-05-12T05:33:11.040Z,8.84
2023-05-12T05:34:11.101Z,8.87
2023-05-12T05:35:11.033Z,8.87
2023-05-12T05:36:11.021Z,8.89
2023-05-12T05:37:11.035Z,8.92
2023-05-12T05:38:10.996Z,8.92
2023-05-12T05:39:10.983Z,8.97
2023-05-12T05:40:10.964Z,8.97
2023-05-12T05:41:10.936Z,8.99
2023-05-12T05:42:10.950Z,9.00
2023-05-12T05:43:10.939Z,8.99
2023-05-12T05:44:10.918Z,9.02
2023-05-12T05:45:10.920Z,9.00
2023-05-12T05:46:10.875Z,9.03
2023-05-12T05:47:11.149Z,9.04
2023-05-12T05:48:10.859Z,9.06
2023-05-12T05:49:10.830Z,9.06
2023-05-12T05:50:10.831Z,9.11
2023-05-12T05:51:10.825Z,9.13
2023-05-12T05:52:10.820Z,9.14
2023-05-12T05:53:10.782Z,9.14
2023-05-12T05:54:10.770Z,9.18
2023-05-12T05:55:10.757Z,9.18
2023-05-12T05:56:10.752Z,9.21
2023-05-12T05:57:10.728Z,9.23
2023-05-12T05:58:10.712Z,9.29
2023-05-12T05:59:10.692Z,9.32
2023-05-12T06:00:10.696Z,9.36
2023-05-12T06:01:10.703Z,9.40
2023-05-12T06:02:10.691Z,9.46
2023-05-12T06:03:10.731Z,9.48
2023-05-12T06:04:10.681Z,9.50
2023-05-12T06:05:10.647Z,9.55
2023-05-12T06:06:10.622Z,9.59
2023-05-12T06:07:10.612Z,9.64
2023-05-12T06:08:10.580Z,9.69
2023-05-12T06:09:10.552Z,9.74
2023-05-12T06:10:10.567Z,9.79
2023-05-12T06:11:10.528Z,9.86
2023-05-12T06:12:10.557Z,9.86
2023-05-12T06:13:10.489Z,9.89
2023-05-12T06:14:10.500Z,9.89
2023-05-12T06:15:10.485Z,9.92
2023-05-12T06:16:10.491Z,9.94
2023-05-12T06:17:10.471Z,9.98
2023-05-12T06:18:10.443Z,9.98
2023-05-12T06:19:10.521Z,9.95
2023-05-12T06:20:10.409Z,9.97
2023-05-12T06:21:10.447Z,9.99
2023-05-12T06:22:10.410Z,10.02
2023-05-12T06:23:10.407Z,10.04
2023-05-12T06:24:10.363Z,10.05
2023-05-12T06:25:10.357Z,10.05
2023-05-12T06:26:10.335Z,10.07
2023-05-12T06:27:10.344Z,10.07
2023-05-12T06:28:10.336Z,10.10
2023-05-12T06:29:10.305Z,10.12
2023-05-12T06:30:10.287Z,10.13
2023-05-12T06:31:10.257Z,10.15
2023-05-12T06:32:10.268Z,10.17
2023-05-12T06:33:10.272Z,10.22
2023-05-12T06:34:10.214Z,10.25
2023-05-12T06:35:10.206Z,10.30
2023-05-12T06:36:10.209Z,10.33
2023-05-12T06:37:10.180Z,10.37
2023-05-12T06:38:10.193Z,10.38
2023-05-12T06:39:10.188Z,10.44
2023-05-12T06:40:10.144Z,10.46
2023-05-12T06:41:10.169Z,10.49
2023-05-12T06:42:10.112Z,10.53
2023-05-12T06:43:10.120Z,10.57
2023-05-12T06:44:10.102Z,10.60
2023-05-12T06:45:10.082Z,10.67
2023-05-12T06:46:10.110Z,10.69
2023-05-12T06:47:10.060Z,10.72
2023-05-12T06:48:10.103Z,10.69
2023-05-12T06:49:10.065Z,10.69
2023-05-12T06:50:10.028Z,10.71
2023-05-12T06:51:09.999Z,10.72
2023-05-12T06:52:09.986Z,10.75
2023-05-12T06:53:10.000Z,10.79
2023-05-12T06:54:09.986Z,10.84
2023-05-12T06:55:09.980Z,10.96
2023-05-12T06:56:09.942Z,11.04
2023-05-12T06:57:09.934Z,11.08
2023-05-12T06:58:09.935Z,11.11
2023-05-12T06:59:09.909Z,11.12
2023-05-12T07:00:09.887Z,11.12
2023-05-12T07:01:09.876Z,11.18
2023-05-12T07:02:09.867Z,11.19
2023-05-12T07:03:10.123Z,11.23
2023-05-12T07:04:09.885Z,11.25
2023-05-12T07:05:09.811Z,11.27
2023-05-12T07:06:09.915Z,11.30
2023-05-12T07:07:09.776Z,11.33
2023-05-12T07:08:09.771Z,11.40
2023-05-12T07:09:09.759Z,11.41
2023-05-12T07:10:09.779Z,11.44
2023-05-12T07:11:09.722Z,11.47
2023-05-12T07:12:09.724Z,11.50
2023-05-12T07:13:09.686Z,11.51
2023-05-12T07:14:09.706Z,11.55
2023-05-12T07:15:09.741Z,11.54
2023-05-12T07:16:09.722Z,11.57
2023-05-12T07:17:09.674Z,11.59
2023-05-12T07:18:09.671Z,11.62
2023-05-12T07:19:09.680Z,11.62
2023-05-12T07:20:09.648Z,11.60
2023-05-12T07:21:09.611Z,11.59
2023-05-12T07:22:09.582Z,11.59
2023-05-12T07:23:09.660Z,11.55
2023-05-12T07:24:09.555Z,11.55
2023-05-12T07:25:09.564Z,11.57
2023-05-12T07:26:09.581Z,11.57
2023-05-12T07:27:09.543Z,11.59
2023-05-12T07:28:09.496Z,11.60
2023-05-12T07:29:10.480Z,11.65
2023-05-12T07:30:09.498Z,11.70
2023-05-12T07:31:09.519Z,11.73
2023-05-12T07:32:09.451Z,11.81
2023-05-12T07:33:09.458Z,11.80
2023-05-12T07:34:09.424Z,11.84
2023-05-12T07:35:09.407Z,11.90
2023-05-12T07:36:09.426Z,11.94
2023-05-12T07:37:09.415Z,11.99
2023-05-12T07:38:09.354Z,11.99
2023-05-12T07:39:09.369Z,12.02
2023-05-12T07:40:09.344Z,12.02
2023-05-12T07:41:23.466Z,12.03
2023-05-12T07:42:09.319Z,12.04
2023-05-12T07:43:09.292Z,12.04
2023-05-12T07:44:09.296Z,12.07
2023-05-12T07:45:09.283Z,12.10
2023-05-12T07:46:09.289Z,12.13
2023-05-12T07:47:09.302Z,12.17
2023-05-12T07:48:09.260Z,12.17
2023-05-12T07:49:09.338Z,12.21
2023-05-12T07:50:09.242Z,12.25
2023-05-12T07:51:09.196Z,12.28
2023-05-12T07:52:09.182Z,12.28
2023-05-12T07:53:09.169Z,12.35
2023-05-12T07:54:09.157Z,12.36
2023-05-12T07:55:09.171Z,12.37
2023-05-12T07:56:09.126Z,12.43
2023-05-12T07:57:09.129Z,12.46
2023-05-12T07:58:09.127Z,12.49
2023-05-12T07:59:09.117Z,12.57
2023-05-12T08:00:09.088Z,12.64
2023-05-12T08:01:09.106Z,12.73
2023-05-12T08:02:09.060Z,12.80
2023-05-12T08:03:09.158Z,12.87
2023-05-12T08:04:09.120Z,12.93
2023-05-12T08:05:09.005Z,12.95
2023-05-12T08:06:09.017Z,12.95
2023-05-12T08:07:09.009Z,12.98
2023-05-12T08:08:09.001Z,12.98
2023-05-12T08:09:08.968Z,12.98
2023-05-12T08:10:08.967Z,12.97
2023-05-12T08:11:08.912Z,12.95
2023-05-12T08:12:08.907Z,12.98
2023-05-12T08:13:08.935Z,13.01
2023-05-12T08:14:08.898Z,12.98
2023-05-12T08:15:08.883Z,12.95
2023-05-12T08:16:08.860Z,12.95
2023-05-12T08:17:08.873Z,12.97
2023-05-12T08:18:08.942Z,12.95
2023-05-12T08:19:08.895Z,12.95
2023-05-12T08:20:08.812Z,13.01
2023-05-12T08:21:08.809Z,13.04
2023-05-12T08:22:08.775Z,13.05
2023-05-12T08:23:08.762Z,13.05
2023-05-12T08:24:08.743Z,13.11
2023-05-12T08:25:10.925Z,13.15
2023-05-12T08:26:08.756Z,13.18
2023-05-12T08:27:08.723Z,13.23
2023-05-12T08:28:08.702Z,13.27
2023-05-12T08:29:08.850Z,13.33
2023-05-12T08:30:08.738Z,13.39
2023-05-12T08:31:08.720Z,13.46
2023-05-12T08:32:08.676Z,13.53
2023-05-12T08:33:08.705Z,13.57
2023-05-12T08:34:11.116Z,13.60
2023-05-12T08:35:08.610Z,13.63
2023-05-12T08:36:08.604Z,13.68
2023-05-12T08:37:08.604Z,13.72
2023-05-12T08:38:08.564Z,13.74
2023-05-12T08:39:08.584Z,13.71
2023-05-12T08:40:08.541Z,13.74
2023-05-12T08:41:08.673Z,13.79
2023-05-12T08:42:08.517Z,13.81
2023-05-12T08:43:08.506Z,13.87
2023-05-12T08:44:08.519Z,13.93
2023-05-12T08:45:08.493Z,13.99
2023-05-12T08:46:08.528Z,14.07
2023-05-12T08:47:08.481Z,14.12
2023-05-12T08:48:39.012Z,14.18
2023-05-12T08:49:08.435Z,14.18
2023-05-12T08:50:08.407Z,14.22
2023-05-12T08:51:08.387Z,14.20
2023-05-12T08:52:08.364Z,14.20
2023-05-12T08:53:08.352Z,14.15
2023-05-12T08:54:08.370Z,14.15
2023-05-12T08:55:08.354Z,14.17
2023-05-12T08:57:09.713Z,14.20
2023-05-12T08:58:09.687Z,14.18
2023-05-12T08:59:08.275Z,14.20
2023-05-12T09:00:08.273Z,14.17
2023-05-12T09:01:08.307Z,14.14
2023-05-12T09:02:08.268Z,14.12
2023-05-12T09:03:08.248Z,14.11
2023-05-12T09:04:08.275Z,14.12
2023-05-12T09:05:08.257Z,14.11
2023-05-12T09:06:08.199Z,14.12
2023-05-12T09:07:08.192Z,14.12
2023-05-12T09:08:08.175Z,14.14
2023-05-12T09:09:08.168Z,14.14
2023-05-12T09:10:08.144Z,14.12
2023-05-12T09:11:08.296Z,14.14
2023-05-12T09:12:08.114Z,14.14
2023-05-12T09:13:08.109Z,14.17
2023-05-12T09:14:08.086Z,14.17
2023-05-12T09:15:08.091Z,14.18
2023-05-12T09:16:08.161Z,14.17
2023-05-12T09:17:08.160Z,14.15
2023-05-12T09:18:08.067Z,14.17
2023-05-12T09:19:08.117Z,14.20
2023-05-12T09:20:11.328Z,14.22
2023-05-12T09:21:08.016Z,14.22
2023-05-12T09:22:07.982Z,14.20
2023-05-12T09:23:07.952Z,14.18
2023-05-12T09:24:07.977Z,14.23
2023-05-12T09:25:07.956Z,14.25
2023-05-12T09:26:07.937Z,14.23
2023-05-12T09:27:07.938Z,14.22
2023-05-12T09:28:07.932Z,14.18
2023-05-12T09:29:07.866Z,14.18
2023-05-12T09:30:07.864Z,14.17
2023-05-12T09:31:07.875Z,14.15
2023-05-12T09:32:07.988Z,14.20
2023-05-12T09:33:07.927Z,14.23
2023-05-12T09:34:07.815Z,14.25
2023-05-12T09:35:07.837Z,14.26
2023-05-12T09:36:07.796Z,14.26
2023-05-12T09:37:07.800Z,14.28
2023-05-12T09:38:07.765Z,14.32
2023-05-12T09:39:07.782Z,14.30
2023-05-12T09:40:07.763Z,14.29
2023-05-12T09:41:07.742Z,14.33
2023-05-12T09:42:07.702Z,14.37
2023-05-12T09:43:07.725Z,14.41
2023-05-12T09:44:07.681Z,14.41
2023-05-12T09:45:07.703Z,14.40
2023-05-12T09:46:38.310Z,14.40
2023-05-12T09:47:07.666Z,14.37
2023-05-12T09:48:07.685Z,14.41
2023-05-12T09:49:07.648Z,14.45
2023-05-12T09:50:07.629Z,14.50
2023-05-12T09:51:07.589Z,14.51
2023-05-12T09:52:07.567Z,14.53
2023-05-12T09:53:07.575Z,14.51
2023-05-12T09:54:07.974Z,14.51
2023-05-12T09:55:07.541Z,14.45
2023-05-12T09:56:07.547Z,14.44
2023-05-12T09:57:07.535Z,14.47
2023-05-12T09:58:07.518Z,14.48
2023-05-12T09:59:07.483Z,14.54
2023-05-12T10:00:16.848Z,14.62
2023-05-12T10:01:21.813Z,14.69
2023-05-12T10:02:07.650Z,14.77
2023-05-12T10:03:07.467Z,14.81
2023-05-12T10:04:07.469Z,14.82
2023-05-12T10:05:38.018Z,14.84
2023-05-12T10:06:08.058Z,14.89
2023-05-12T10:07:07.544Z,14.92
2023-05-12T10:08:07.369Z,14.97
2023-05-12T10:09:07.346Z,14.97
2023-05-12T10:10:07.364Z,14.97
2023-05-12T10:11:07.329Z,14.96
2023-05-12T10:12:07.363Z,14.97
2023-05-12T10:13:07.289Z,15.00
2023-05-12T10:14:07.336Z,15.03
2023-05-12T10:15:07.308Z,15.02
2023-05-12T10:16:07.248Z,15.02
2023-05-12T10:17:07.318Z,15.02
2023-05-12T10:18:07.298Z,15.03
2023-05-12T10:19:07.238Z,15.04
2023-05-12T10:20:07.229Z,15.06
2023-05-12T10:21:07.195Z,15.03
2023-05-12T10:22:07.163Z,15.03
2023-05-12T10:23:07.239Z,15.02
2023-05-12T10:24:07.200Z,14.99
2023-05-12T10:25:07.235Z,14.97
2023-05-12T10:26:07.121Z,14.99
2023-05-12T10:27:07.150Z,14.96
2023-05-12T10:28:07.095Z,14.94
2023-05-12T10:29:07.083Z,14.97
2023-05-12T10:30:07.074Z,15.00
2023-05-12T10:31:07.098Z,15.03
2023-05-12T10:32:07.057Z,15.07
2023-05-12T10:33:07.022Z,15.09
2023-05-12T10:34:07.013Z,15.09
2023-05-12T10:35:07.004Z,15.07
2023-05-12T10:36:06.991Z,15.06
2023-05-12T10:37:07.013Z,15.06
2023-05-12T10:38:06.949Z,15.06
2023-05-12T10:39:07.005Z,15.06
2023-05-12T10:40:06.967Z,15.07
2023-05-12T10:41:06.913Z,15.07
2023-05-12T10:42:06.906Z,15.09
2023-05-12T10:43:06.894Z,15.14
2023-05-12T10:44:06.891Z,15.17
2023-05-12T10:45:06.881Z,15.19
2023-05-12T10:46:06.847Z,15.22
2023-05-12T10:47:06.833Z,15.19
2023-05-12T10:48:06.918Z,15.22
2023-05-12T10:49:06.810Z,15.24
2023-05-12T10:50:06.836Z,15.24
2023-05-12T10:51:06.800Z,15.22
2023-05-12T10:52:06.789Z,15.22
2023-05-12T10:53:08.153Z,15.22
2023-05-12T10:54:07.486Z,15.22
2023-05-12T10:55:06.762Z,15.24
2023-05-12T10:56:06.921Z,15.22
2023-05-12T10:57:06.948Z,15.24
2023-05-12T10:58:06.883Z,15.25
2023-05-12T10:59:06.890Z,15.27
2023-05-12T11:00:06.957Z,15.28
2023-05-12T11:01:07.204Z,15.22
2023-05-12T11:02:07.038Z,15.18
2023-05-12T11:03:10.196Z,15.14
2023-05-12T11:04:06.818Z,15.10
2023-05-12T11:05:07.103Z,15.07
2023-05-12T11:06:07.026Z,15.06
2023-05-12T11:07:07.938Z,15.06
2023-05-12T11:08:07.101Z,15.06
2023-05-12T11:09:06.909Z,15.06
2023-05-12T11:10:07.839Z,15.07
2023-05-12T11:11:06.623Z,15.03
2023-05-12T11:12:06.840Z,15.02
2023-05-12T11:13:06.489Z,14.99
2023-05-12T11:14:06.518Z,15.02
2023-05-12T11:15:06.721Z,15.04
2023-05-12T11:16:06.513Z,15.04
2023-05-12T11:17:06.435Z,15.02
2023-05-12T11:18:06.485Z,14.94
2023-05-12T11:19:06.564Z,14.99
2023-05-12T11:20:06.391Z,15.04
2023-05-12T11:21:06.383Z,15.09
2023-05-12T11:22:06.362Z,15.15
2023-05-12T11:23:06.473Z,15.19
2023-05-12T11:24:06.361Z,15.21
2023-05-12T11:25:06.446Z,15.24
2023-05-12T11:26:06.326Z,15.27
2023-05-12T11:27:06.336Z,15.28
2023-05-12T11:28:06.289Z,15.29
2023-05-12T11:29:06.286Z,15.29
2023-05-12T11:30:06.298Z,15.28
2023-05-12T11:31:06.273Z,15.29
2023-05-12T11:32:06.268Z,15.27
2023-05-12T11:33:06.275Z,15.22
2023-05-12T11:34:12.634Z,15.18
2023-05-12T11:35:06.280Z,15.18
2023-05-12T11:36:06.223Z,15.15
2023-05-12T11:37:06.183Z,15.18
2023-05-12T11:38:06.181Z,15.15
2023-05-12T11:39:06.132Z,15.14
2023-05-12T11:40:06.150Z,15.14
2023-05-12T11:41:06.153Z,15.14
2023-05-12T11:42:12.991Z,15.10
2023-05-12T11:43:06.099Z,15.07
2023-05-12T11:44:06.927Z,15.06
2023-05-12T11:45:06.091Z,15.04
2023-05-12T11:46:06.149Z,15.06
2023-05-12T11:47:06.063Z,15.06
2023-05-12T11:48:06.034Z,15.02
2023-05-12T11:49:06.011Z,14.99
2023-05-12T11:50:06.006Z,14.96
2023-05-12T11:51:06.007Z,14.96
2023-05-12T11:52:05.963Z,14.96
2023-05-12T11:53:05.960Z,14.92
2023-05-12T11:54:05.943Z,14.92
2023-05-12T11:55:06.202Z,14.89
2023-05-12T11:56:05.914Z,14.89
2023-05-12T11:57:05.911Z,14.89
2023-05-12T11:58:05.898Z,14.91
2023-05-12T11:59:05.877Z,14.94
2023-05-12T12:00:05.902Z,14.97
2023-05-12T12:01:05.851Z,14.96
2023-05-12T12:02:05.864Z,14.94
2023-05-12T12:03:05.901Z,14.89
2023-05-12T12:04:05.882Z,14.91
2023-05-12T12:05:07.866Z,14.94
2023-05-12T12:06:05.794Z,14.96
2023-05-12T12:07:05.766Z,14.99
2023-05-12T12:08:05.786Z,15.00
2023-05-12T12:09:05.744Z,14.97
2023-05-12T12:10:05.738Z,14.97
2023-05-12T12:11:05.745Z,14.99
2023-05-12T12:12:05.718Z,14.94
2023-05-12T12:13:05.679Z,14.88
2023-05-12T12:14:05.698Z,14.86
2023-05-12T12:15:05.679Z,14.84
2023-05-12T12:16:05.713Z,14.84
2023-05-12T12:17:05.664Z,14.84
2023-05-12T12:18:05.718Z,14.81
2023-05-12T12:19:05.697Z,14.82
2023-05-12T12:20:05.606Z,14.81
2023-05-12T12:21:05.616Z,14.82
2023-05-12T12:22:05.577Z,14.84
2023-05-12T12:23:05.556Z,14.84
2023-05-12T12:24:05.564Z,14.85
2023-05-12T12:25:05.541Z,14.86
2023-05-12T12:26:05.597Z,14.86
2023-05-12T12:27:05.525Z,14.86
2023-05-12T12:28:05.493Z,14.85
2023-05-12T12:29:05.488Z,14.84
2023-05-12T12:30:05.499Z,14.84
2023-05-12T12:31:05.479Z,14.82
2023-05-12T12:32:05.458Z,14.85
2023-05-12T12:33:05.483Z,14.86
2023-05-12T12:34:05.427Z,14.88
2023-05-12T12:35:05.417Z,14.89
2023-05-12T12:36:05.387Z,14.89
2023-05-12T12:37:05.371Z,14.86
2023-05-12T12:38:05.417Z,14.85
2023-05-12T12:39:05.335Z,14.86
2023-05-12T12:40:05.369Z,14.85
2023-05-12T12:41:05.353Z,14.86
2023-05-12T12:42:05.291Z,14.86
2023-05-12T12:43:05.345Z,14.86
2023-05-12T12:44:05.298Z,14.85
2023-05-12T12:45:05.264Z,14.86
2023-05-12T12:46:05.247Z,14.86
2023-05-12T12:48:33.023Z,14.88
2023-05-12T12:48:38.363Z,14.86
2023-05-12T12:49:38.366Z,14.82
2023-05-12T12:50:38.348Z,14.78
2023-05-12T12:51:45.512Z,14.78
2023-05-12T12:52:38.337Z,14.77
2023-05-12T12:53:38.322Z,14.79
2023-05-12T12:54:38.310Z,14.81
2023-05-12T12:55:38.293Z,14.82
2023-05-12T12:56:38.259Z,14.82
2023-05-12T12:57:38.271Z,14.85
2023-05-12T12:58:38.261Z,14.84
2023-05-12T12:59:38.253Z,14.88
2023-05-12T13:00:38.268Z,14.85
2023-05-12T13:01:38.186Z,14.84
2023-05-12T13:02:38.221Z,14.77
2023-05-12T13:03:38.190Z,14.73
2023-05-12T13:04:38.158Z,14.72
2023-05-12T13:05:38.177Z,14.68
2023-05-12T13:06:38.169Z,14.66